sensor_id;sensor_type;location;lat;lon;timestamp;temperature;humidity
69335;SHT31;56477;52.742;15.242;2023-05-10T00:00:35;11.35;57.83
69335;SHT31;56477;52.742;15.242;2023-05-10T00:03:10;11.38;57.55
69335;SHT31;56477;52.742;15.242;2023-05-10T00:05:36;11.39;57.60
69335;SHT31;56477;52.742;15.242;2023-05-10T00:08:02;11.41;57.78
69335;SHT31;56477;52.742;15.242;2023-05-10T00:10:28;11.38;57.72
69335;SHT31;56477;52.742;15.242;2023-05-10T00:12:54;11.37;58.02
69335;SHT31;56477;52.742;15.242;2023-05-10T00:15:20;11.34;58.09
69335;SHT31;56477;52.742;15.242;2023-05-10T00:17:46;11.31;57.99
69335;SHT31;56477;52.742;15.242;2023-05-10T00:20:12;11.30;58.29
69335;SHT31;56477;52.742;15.242;2023-05-10T00:22:38;11.27;58.18
69335;SHT31;56477;52.742;15.242;2023-05-10T00:25:04;11.24;58.49
69335;SHT31;56477;52.742;15.242;2023-05-10T00:27:30;11.17;58.51
69335;SHT31;56477;52.742;15.242;2023-05-10T00:29:56;11.10;58.82
69335;SHT31;56477;52.742;15.242;2023-05-10T00:32:22;11.06;59.02
69335;SHT31;56477;52.742;15.242;2023-05-10T00:34:48;11.06;59.38
69335;SHT31;56477;52.742;15.242;2023-05-10T00:37:14;11.04;59.18
69335;SHT31;56477;52.742;15.242;2023-05-10T00:39:40;10.96;59.46
69335;SHT31;56477;52.742;15.242;2023-05-10T00:42:06;10.93;59.99
69335;SHT31;56477;52.742;15.242;2023-05-10T00:44:32;10.81;60.04
69335;SHT31;56477;52.742;15.242;2023-05-10T00:46:59;10.80;60.35
69335;SHT31;56477;52.742;15.242;2023-05-10T00:49:25;10.69;60.95
69335;SHT31;56477;52.742;15.242;2023-05-10T00:51:51;10.69;60.42
69335;SHT31;56477;52.742;15.242;2023-05-10T00:54:17;10.59;61.70
69335;SHT31;56477;52.742;15.242;2023-05-10T00:56:43;10.59;61.26
69335;SHT31;56477;52.742;15.242;2023-05-10T00:59:17;10.60;60.34
69335;SHT31;56477;52.742;15.242;2023-05-10T01:01:44;10.55;61.74
69335;SHT31;56477;52.742;15.242;2023-05-10T01:04:11;10.55;60.92
69335;SHT31;56477;52.742;15.242;2023-05-10T01:06:42;10.58;61.44
69335;SHT31;56477;52.742;15.242;2023-05-10T01:09:08;10.56;61.17
69335;SHT31;56477;52.742;15.242;2023-05-10T01:11:35;10.46;61.83
69335;SHT31;56477;52.742;15.242;2023-05-10T01:14:02;10.42;61.76
69335;SHT31;56477;52.742;15.242;2023-05-10T01:16:31;10.39;61.47
69335;SHT31;56477;52.742;15.242;2023-05-10T01:18:58;10.37;62.42
69335;SHT31;56477;52.742;15.242;2023-05-10T01:21:58;10.34;62.08
69335;SHT31;56477;52.742;15.242;2023-05-10T01:25:05;10.28;62.63
69335;SHT31;56477;52.742;15.242;2023-05-10T01:35:51;10.15;62.52
69335;SHT31;56477;52.742;15.242;2023-05-10T01:38:51;10.11;62.99
69335;SHT31;56477;52.742;15.242;2023-05-10T01:46:28;9.94;63.44
69335;SHT31;56477;52.742;15.242;2023-05-10T01:48:58;9.95;63.21
69335;SHT31;56477;52.742;15.242;2023-05-10T01:51:31;9.94;62.82
69335;SHT31;56477;52.742;15.242;2023-05-10T01:54:04;9.93;63.56
69335;SHT31;56477;52.742;15.242;2023-05-10T01:56:33;9.90;63.62
69335;SHT31;56477;52.742;15.242;2023-05-10T01:59:06;9.81;64.15
69335;SHT31;56477;52.742;15.242;2023-05-10T02:01:33;9.81;63.31
69335;SHT31;56477;52.742;15.242;2023-05-10T02:04:01;9.83;64.03
69335;SHT31;56477;52.742;15.242;2023-05-10T02:06:27;9.80;63.95
69335;SHT31;56477;52.742;15.242;2023-05-10T02:08:54;9.73;64.45
69335;SHT31;56477;52.742;15.242;2023-05-10T02:11:21;9.67;64.30
69335;SHT31;56477;52.742;15.242;2023-05-10T02:13:50;9.56;65.10
69335;SHT31;56477;52.742;15.242;2023-05-10T02:16:18;9.49;65.30
69335;SHT31;56477;52.742;15.242;2023-05-10T02:18:48;9.47;64.75
69335;SHT31;56477;52.742;15.242;2023-05-10T02:21:15;9.43;65.13
69335;SHT31;56477;52.742;15.242;2023-05-10T02:23:43;9.40;64.92
69335;SHT31;56477;52.742;15.242;2023-05-10T02:26:10;9.38;65.66
69335;SHT31;56477;52.742;15.242;2023-05-10T02:28:38;9.33;65.95
69335;SHT31;56477;52.742;15.242;2023-05-10T02:31:06;9.32;66.04
69335;SHT31;56477;52.742;15.242;2023-05-10T02:33:33;9.23;66.04
69335;SHT31;56477;52.742;15.242;2023-05-10T02:36:01;9.18;66.33
69335;SHT31;56477;52.742;15.242;2023-05-10T02:38:28;9.12;66.51
69335;SHT31;56477;52.742;15.242;2023-05-10T02:40:56;9.08;66.60
69335;SHT31;56477;52.742;15.242;2023-05-10T02:43:23;9.09;66.41
69335;SHT31;56477;52.742;15.242;2023-05-10T02:45:50;9.09;67.26
69335;SHT31;56477;52.742;15.242;2023-05-10T02:48:16;9.05;67.03
69335;SHT31;56477;52.742;15.242;2023-05-10T02:50:45;9.02;67.36
69335;SHT31;56477;52.742;15.242;2023-05-10T02:53:30;8.92;67.64
69335;SHT31;56477;52.742;15.242;2023-05-10T02:55:59;8.85;67.80
69335;SHT31;56477;52.742;15.242;2023-05-10T02:58:26;8.77;68.03
69335;SHT31;56477;52.742;15.242;2023-05-10T03:00:52;8.72;68.35
69335;SHT31;56477;52.742;15.242;2023-05-10T03:03:19;8.65;68.68
69335;SHT31;56477;52.742;15.242;2023-05-10T03:05:46;8.57;68.82
69335;SHT31;56477;52.742;15.242;2023-05-10T03:08:12;8.56;69.27
69335;SHT31;56477;52.742;15.242;2023-05-10T03:10:48;8.51;69.32
69335;SHT31;56477;52.742;15.242;2023-05-10T03:13:25;8.43;69.56
69335;SHT31;56477;52.742;15.242;2023-05-10T03:16:15;8.40;69.91
69335;SHT31;56477;52.742;15.242;2023-05-10T03:18:47;8.42;69.71
69335;SHT31;56477;52.742;15.242;2023-05-10T03:21:17;8.36;69.91
69335;SHT31;56477;52.742;15.242;2023-05-10T03:23:48;8.29;69.88
69335;SHT31;56477;52.742;15.242;2023-05-10T03:26:26;8.30;69.85
69335;SHT31;56477;52.742;15.242;2023-05-10T03:28:53;8.28;69.80
69335;SHT31;56477;52.742;15.242;2023-05-10T03:31:20;8.33;70.54
69335;SHT31;56477;52.742;15.242;2023-05-10T03:33:50;8.32;70.09
69335;SHT31;56477;52.742;15.242;2023-05-10T03:36:16;8.32;70.36
69335;SHT31;56477;52.742;15.242;2023-05-10T03:38:42;8.26;70.19
69335;SHT31;56477;52.742;15.242;2023-05-10T03:41:08;8.22;70.32
69335;SHT31;56477;52.742;15.242;2023-05-10T03:43:35;8.26;70.51
69335;SHT31;56477;52.742;15.242;2023-05-10T03:46:04;8.23;70.72
69335;SHT31;56477;52.742;15.242;2023-05-10T03:48:33;8.25;70.81
69335;SHT31;56477;52.742;15.242;2023-05-10T03:50:59;8.22;70.86
69335;SHT31;56477;52.742;15.242;2023-05-10T03:53:25;8.28;69.97
69335;SHT31;56477;52.742;15.242;2023-05-10T03:55:51;8.25;71.11
69335;SHT31;56477;52.742;15.242;2023-05-10T03:58:17;8.26;70.27
69335;SHT31;56477;52.742;15.242;2023-05-10T04:00:44;8.28;70.25
69335;SHT31;56477;52.742;15.242;2023-05-10T04:03:12;8.34;69.88
69335;SHT31;56477;52.742;15.242;2023-05-10T04:05:38;8.39;69.66
69335;SHT31;56477;52.742;15.242;2023-05-10T04:08:04;8.40;69.13
69335;SHT31;56477;52.742;15.242;2023-05-10T04:10:30;8.44;68.98
69335;SHT31;56477;52.742;15.242;2023-05-10T04:12:57;8.51;68.91
69335;SHT31;56477;52.742;15.242;2023-05-10T04:15:23;8.54;69.06
69335;SHT31;56477;52.742;15.242;2023-05-10T04:17:49;8.57;68.86
69335;SHT31;56477;52.742;15.242;2023-05-10T04:20:16;8.59;68.85
69335;SHT31;56477;52.742;15.242;2023-05-10T04:22:42;8.60;68.51
69335;SHT31;56477;52.742;15.242;2023-05-10T04:25:08;8.67;68.87
69335;SHT31;56477;52.742;15.242;2023-05-10T04:27:34;8.67;68.57
69335;SHT31;56477;52.742;15.242;2023-05-10T04:30:00;8.67;68.56
69335;SHT31;56477;52.742;15.242;2023-05-10T04:32:27;8.68;68.29
69335;SHT31;56477;52.742;15.242;2023-05-10T04:34:53;8.71;68.43
69335;SHT31;56477;52.742;15.242;2023-05-10T04:37:19;8.71;68.30
69335;SHT31;56477;52.742;15.242;2023-05-10T04:39:46;8.77;68.69
69335;SHT31;56477;52.742;15.242;2023-05-10T04:42:13;8.78;68.55
69335;SHT31;56477;52.742;15.242;2023-05-10T04:44:40;8.87;68.21
69335;SHT31;56477;52.742;15.242;2023-05-10T04:47:06;8.91;68.11
69335;SHT31;56477;52.742;15.242;2023-05-10T04:49:32;8.94;68.28
69335;SHT31;56477;52.742;15.242;2023-05-10T04:51:58;8.95;68.46
69335;SHT31;56477;52.742;15.242;2023-05-10T04:54:24;8.98;67.88
69335;SHT31;56477;52.742;15.242;2023-05-10T04:56:50;9.08;68.18
69335;SHT31;56477;52.742;15.242;2023-05-10T04:59:16;9.15;67.57
69335;SHT31;56477;52.742;15.242;2023-05-10T05:01:43;9.22;67.57
69335;SHT31;56477;52.742;15.242;2023-05-10T05:04:08;9.19;67.51
69335;SHT31;56477;52.742;15.242;2023-05-10T05:06:35;9.28;67.65
69335;SHT31;56477;52.742;15.242;2023-05-10T05:09:00;9.30;67.61
69335;SHT31;56477;52.742;15.242;2023-05-10T05:11:26;9.39;67.84
69335;SHT31;56477;52.742;15.242;2023-05-10T05:13:52;9.40;67.43
69335;SHT31;56477;52.742;15.242;2023-05-10T05:16:18;9.46;67.31
69335;SHT31;56477;52.742;15.242;2023-05-10T05:18:44;9.50;67.61
69335;SHT31;56477;52.742;15.242;2023-05-10T05:21:15;9.60;67.32
69335;SHT31;56477;52.742;15.242;2023-05-10T05:23:41;9.69;67.09
69335;SHT31;56477;52.742;15.242;2023-05-10T05:26:07;9.73;67.08
69335;SHT31;56477;52.742;15.242;2023-05-10T05:28:33;9.83;66.90
69335;SHT31;56477;52.742;15.242;2023-05-10T05:31:04;9.93;66.78
69335;SHT31;56477;52.742;15.242;2023-05-10T05:33:29;9.95;66.42
69335;SHT31;56477;52.742;15.242;2023-05-10T05:35:56;10.02;66.32
69335;SHT31;56477;52.742;15.242;2023-05-10T05:38:22;10.11;66.45
69335;SHT31;56477;52.742;15.242;2023-05-10T05:40:48;10.21;66.29
69335;SHT31;56477;52.742;15.242;2023-05-10T05:43:14;10.31;66.35
69335;SHT31;56477;52.742;15.242;2023-05-10T05:45:40;10.41;65.71
69335;SHT31;56477;52.742;15.242;2023-05-10T05:48:06;10.49;65.79
69335;SHT31;56477;52.742;15.242;2023-05-10T05:50:32;10.58;66.03
69335;SHT31;56477;52.742;15.242;2023-05-10T05:52:58;10.72;65.00
69335;SHT31;56477;52.742;15.242;2023-05-10T05:55:24;10.80;65.08
69335;SHT31;56477;52.742;15.242;2023-05-10T05:57:51;10.89;64.82
69335;SHT31;56477;52.742;15.242;2023-05-10T06:00:17;11.00;64.58
69335;SHT31;56477;52.742;15.242;2023-05-10T06:02:43;11.04;63.90
69335;SHT31;56477;52.742;15.242;2023-05-10T06:05:09;11.14;63.65
69335;SHT31;56477;52.742;15.242;2023-05-10T06:07:36;11.31;64.14
69335;SHT31;56477;52.742;15.242;2023-05-10T06:10:01;11.34;63.02
69335;SHT31;56477;52.742;15.242;2023-05-10T06:12:28;11.44;62.90
69335;SHT31;56477;52.742;15.242;2023-05-10T06:14:54;11.55;63.41
69335;SHT31;56477;52.742;15.242;2023-05-10T06:17:20;11.62;62.90
69335;SHT31;56477;52.742;15.242;2023-05-10T06:19:47;11.76;63.05
69335;SHT31;56477;52.742;15.242;2023-05-10T06:22:13;11.90;63.07
69335;SHT31;56477;52.742;15.242;2023-05-10T06:24:39;11.99;62.30
69335;SHT31;56477;52.742;15.242;2023-05-10T06:27:05;12.09;61.69
69335;SHT31;56477;52.742;15.242;2023-05-10T06:29:31;12.19;61.42
69335;SHT31;56477;52.742;15.242;2023-05-10T06:31:58;12.37;61.56
69335;SHT31;56477;52.742;15.242;2023-05-10T06:34:24;12.50;60.91
69335;SHT31;56477;52.742;15.242;2023-05-10T06:36:50;12.64;60.50
69335;SHT31;56477;52.742;15.242;2023-05-10T06:39:17;12.74;60.36
69335;SHT31;56477;52.742;15.242;2023-05-10T06:41:43;12.95;60.00
69335;SHT31;56477;52.742;15.242;2023-05-10T06:44:09;13.13;59.81
69335;SHT31;56477;52.742;15.242;2023-05-10T06:46:35;13.26;59.94
69335;SHT31;56477;52.742;15.242;2023-05-10T06:49:01;13.36;59.46
69335;SHT31;56477;52.742;15.242;2023-05-10T06:51:28;13.60;59.20
69335;SHT31;56477;52.742;15.242;2023-05-10T06:53:53;13.78;59.04
69335;SHT31;56477;52.742;15.242;2023-05-10T06:56:20;14.00;58.10
69335;SHT31;56477;52.742;15.242;2023-05-10T06:58:47;14.30;57.06
69335;SHT31;56477;52.742;15.242;2023-05-10T07:01:13;14.59;56.08
69335;SHT31;56477;52.742;15.242;2023-05-10T07:03:39;14.97;55.27
69335;SHT31;56477;52.742;15.242;2023-05-10T07:06:06;15.61;53.91
69335;SHT31;56477;52.742;15.242;2023-05-10T07:08:33;16.55;52.14
69335;SHT31;56477;52.742;15.242;2023-05-10T07:11:04;17.50;49.36
69335;SHT31;56477;52.742;15.242;2023-05-10T07:13:33;18.40;48.62
69335;SHT31;56477;52.742;15.242;2023-05-10T07:16:00;18.10;45.86
69335;SHT31;56477;52.742;15.242;2023-05-10T07:18:27;19.00;46.07
69335;SHT31;56477;52.742;15.242;2023-05-10T07:20:54;19.82;44.00
69335;SHT31;56477;52.742;15.242;2023-05-10T07:23:20;19.69;44.83
69335;SHT31;56477;52.742;15.242;2023-05-10T07:25:47;19.01;44.74
69335;SHT31;56477;52.742;15.242;2023-05-10T07:28:15;19.76;43.65
69335;SHT31;56477;52.742;15.242;2023-05-10T07:30:41;20.38;43.20
69335;SHT31;56477;52.742;15.242;2023-05-10T07:33:08;20.73;41.87
69335;SHT31;56477;52.742;15.242;2023-05-10T07:35:35;20.13;42.83
69335;SHT31;56477;52.742;15.242;2023-05-10T07:38:01;19.92;43.20
69335;SHT31;56477;52.742;15.242;2023-05-10T07:40:28;20.38;42.26
69335;SHT31;56477;52.742;15.242;2023-05-10T07:42:54;20.37;42.57
69335;SHT31;56477;52.742;15.242;2023-05-10T07:45:21;20.31;42.82
69335;SHT31;56477;52.742;15.242;2023-05-10T07:47:47;20.65;42.03
69335;SHT31;56477;52.742;15.242;2023-05-10T07:50:13;19.25;44.48
69335;SHT31;56477;52.742;15.242;2023-05-10T07:52:39;19.94;43.35
69335;SHT31;56477;52.742;15.242;2023-05-10T07:55:06;20.56;42.48
69335;SHT31;56477;52.742;15.242;2023-05-10T07:57:35;20.86;41.63
69335;SHT31;56477;52.742;15.242;2023-05-10T08:00:02;21.19;41.47
69335;SHT31;56477;52.742;15.242;2023-05-10T08:02:28;21.75;40.89
69335;SHT31;56477;52.742;15.242;2023-05-10T08:04:55;21.09;41.49
69335;SHT31;56477;52.742;15.242;2023-05-10T08:07:21;20.37;42.61
69335;SHT31;56477;52.742;15.242;2023-05-10T08:09:47;20.55;42.73
69335;SHT31;56477;52.742;15.242;2023-05-10T08:12:13;20.98;42.43
69335;SHT31;56477;52.742;15.242;2023-05-10T08:14:39;21.81;41.59
69335;SHT31;56477;52.742;15.242;2023-05-10T08:17:05;22.23;39.96
69335;SHT31;56477;52.742;15.242;2023-05-10T08:19:31;21.26;41.22
69335;SHT31;56477;52.742;15.242;2023-05-10T08:21:57;21.20;40.82
69335;SHT31;56477;52.742;15.242;2023-05-10T08:24:23;21.50;40.75
69335;SHT31;56477;52.742;15.242;2023-05-10T08:26:49;21.09;41.32
69335;SHT31;56477;52.742;15.242;2023-05-10T08:29:15;21.34;42.11
69335;SHT31;56477;52.742;15.242;2023-05-10T08:31:41;20.83;42.19
69335;SHT31;56477;52.742;15.242;2023-05-10T08:34:07;20.65;42.51
69335;SHT31;56477;52.742;15.242;2023-05-10T08:36:33;21.37;40.46
69335;SHT31;56477;52.742;15.242;2023-05-10T08:38:59;20.75;41.54
69335;SHT31;56477;52.742;15.242;2023-05-10T08:41:25;20.62;42.15
69335;SHT31;56477;52.742;15.242;2023-05-10T08:43:53;21.23;41.20
69335;SHT31;56477;52.742;15.242;2023-05-10T08:46:20;21.20;41.59
69335;SHT31;56477;52.742;15.242;2023-05-10T08:48:47;21.20;41.42
69335;SHT31;56477;52.742;15.242;2023-05-10T08:51:15;21.44;40.43
69335;SHT31;56477;52.742;15.242;2023-05-10T08:53:44;21.94;38.85
69335;SHT31;56477;52.742;15.242;2023-05-10T08:56:10;21.65;39.29
69335;SHT31;56477;52.742;15.242;2023-05-10T08:58:37;21.59;40.64
69335;SHT31;56477;52.742;15.242;2023-05-10T09:01:03;21.17;40.89
69335;SHT31;56477;52.742;15.242;2023-05-10T09:03:31;21.37;41.02
69335;SHT31;56477;52.742;15.242;2023-05-10T09:05:57;22.25;39.76
69335;SHT31;56477;52.742;15.242;2023-05-10T09:08:24;21.53;40.67
69335;SHT31;56477;52.742;15.242;2023-05-10T09:10:54;21.41;40.89
69335;SHT31;56477;52.742;15.242;2023-05-10T09:13:22;21.13;41.56
69335;SHT31;56477;52.742;15.242;2023-05-10T09:15:48;21.30;40.15
69335;SHT31;56477;52.742;15.242;2023-05-10T09:18:15;21.38;39.75
69335;SHT31;56477;52.742;15.242;2023-05-10T09:20:41;21.65;40.19
69335;SHT31;56477;52.742;15.242;2023-05-10T09:23:07;21.61;39.66
69335;SHT31;56477;52.742;15.242;2023-05-10T09:25:33;21.36;39.63
69335;SHT31;56477;52.742;15.242;2023-05-10T09:27:59;21.36;39.96
69335;SHT31;56477;52.742;15.242;2023-05-10T09:30:27;21.34;39.60
69335;SHT31;56477;52.742;15.242;2023-05-10T09:32:54;21.10;40.50
69335;SHT31;56477;52.742;15.242;2023-05-10T09:35:23;21.29;40.80
69335;SHT31;56477;52.742;15.242;2023-05-10T09:37:51;21.62;40.09
69335;SHT31;56477;52.742;15.242;2023-05-10T09:40:24;21.75;39.33
69335;SHT31;56477;52.742;15.242;2023-05-10T09:45:18;21.17;40.90
69335;SHT31;56477;52.742;15.242;2023-05-10T09:47:45;21.20;40.79
69335;SHT31;56477;52.742;15.242;2023-05-10T09:50:11;21.58;40.21
69335;SHT31;56477;52.742;15.242;2023-05-10T09:52:47;21.33;40.84
69335;SHT31;56477;52.742;15.242;2023-05-10T09:55:14;21.69;40.51
69335;SHT31;56477;52.742;15.242;2023-05-10T09:57:40;21.74;40.91
69335;SHT31;56477;52.742;15.242;2023-05-10T10:00:07;21.47;40.17
69335;SHT31;56477;52.742;15.242;2023-05-10T10:02:33;21.41;41.40
69335;SHT31;56477;52.742;15.242;2023-05-10T10:05:02;21.78;41.17
69335;SHT31;56477;52.742;15.242;2023-05-10T10:07:29;21.48;40.74
69335;SHT31;56477;52.742;15.242;2023-05-10T10:09:55;22.05;39.89
69335;SHT31;56477;52.742;15.242;2023-05-10T10:12:21;21.88;39.72
69335;SHT31;56477;52.742;15.242;2023-05-10T10:14:47;22.10;40.26
69335;SHT31;56477;52.742;15.242;2023-05-10T10:17:17;21.92;39.44
69335;SHT31;56477;52.742;15.242;2023-05-10T10:19:43;22.25;39.48
69335;SHT31;56477;52.742;15.242;2023-05-10T10:22:09;21.62;39.88
69335;SHT31;56477;52.742;15.242;2023-05-10T10:24:38;22.52;38.92
69335;SHT31;56477;52.742;15.242;2023-05-10T10:27:19;22.71;38.11
69335;SHT31;56477;52.742;15.242;2023-05-10T10:29:55;22.08;38.84
69335;SHT31;56477;52.742;15.242;2023-05-10T10:32:42;22.40;38.54
69335;SHT31;56477;52.742;15.242;2023-05-10T10:35:15;22.25;39.41
69335;SHT31;56477;52.742;15.242;2023-05-10T10:37:46;22.46;38.39
69335;SHT31;56477;52.742;15.242;2023-05-10T10:40:32;22.86;38.66
69335;SHT31;56477;52.742;15.242;2023-05-10T10:43:22;23.12;37.69
69335;SHT31;56477;52.742;15.242;2023-05-10T10:48:35;23.11;38.49
69335;SHT31;56477;52.742;15.242;2023-05-10T10:51:02;23.22;37.19
69335;SHT31;56477;52.742;15.242;2023-05-10T10:53:28;22.57;37.79
69335;SHT31;56477;52.742;15.242;2023-05-10T10:56:15;23.48;37.82
69335;SHT31;56477;52.742;15.242;2023-05-10T10:58:42;22.90;38.06
69335;SHT31;56477;52.742;15.242;2023-05-10T11:01:15;23.38;36.69
69335;SHT31;56477;52.742;15.242;2023-05-10T11:06:40;23.22;35.87
69335;SHT31;56477;52.742;15.242;2023-05-10T11:09:08;23.19;36.06
69335;SHT31;56477;52.742;15.242;2023-05-10T11:11:35;23.26;36.63
69335;SHT31;56477;52.742;15.242;2023-05-10T11:14:07;23.72;36.73
69335;SHT31;56477;52.742;15.242;2023-05-10T11:16:43;24.11;36.22
69335;SHT31;56477;52.742;15.242;2023-05-10T11:19:14;23.80;35.25
69335;SHT31;56477;52.742;15.242;2023-05-10T11:22:30;23.29;36.50
69335;SHT31;56477;52.742;15.242;2023-05-10T11:24:31;23.87;35.90
69335;SHT31;56477;52.742;15.242;2023-05-10T11:26:59;24.20;36.23
69335;SHT31;56477;52.742;15.242;2023-05-10T11:29:26;24.38;35.37
69335;SHT31;56477;52.742;15.242;2023-05-10T11:31:52;23.76;35.33
69335;SHT31;56477;52.742;15.242;2023-05-10T11:34:26;24.49;34.33
69335;SHT31;56477;52.742;15.242;2023-05-10T11:36:53;24.30;34.57
69335;SHT31;56477;52.742;15.242;2023-05-10T11:39:21;24.22;34.93
69335;SHT31;56477;52.742;15.242;2023-05-10T11:41:48;24.62;34.46
69335;SHT31;56477;52.742;15.242;2023-05-10T11:44:15;24.07;35.29
69335;SHT31;56477;52.742;15.242;2023-05-10T11:46:41;24.57;35.34
69335;SHT31;56477;52.742;15.242;2023-05-10T11:49:08;24.85;35.96
69335;SHT31;56477;52.742;15.242;2023-05-10T11:51:35;25.44;35.28
69335;SHT31;56477;52.742;15.242;2023-05-10T11:54:07;25.73;33.64
69335;SHT31;56477;52.742;15.242;2023-05-10T11:56:37;24.89;34.18
69335;SHT31;56477;52.742;15.242;2023-05-10T11:59:03;24.65;34.41
69335;SHT31;56477;52.742;15.242;2023-05-10T12:01:30;24.59;33.85
69335;SHT31;56477;52.742;15.242;2023-05-10T12:03:58;23.90;34.70
69335;SHT31;56477;52.742;15.242;2023-05-10T12:06:29;24.06;34.66
69335;SHT31;56477;52.742;15.242;2023-05-10T12:08:57;24.88;34.30
69335;SHT31;56477;52.742;15.242;2023-05-10T12:11:27;24.95;33.54
69335;SHT31;56477;52.742;15.242;2023-05-10T12:13:55;24.21;34.88
69335;SHT31;56477;52.742;15.242;2023-05-10T12:16:26;25.67;32.97
69335;SHT31;56477;52.742;15.242;2023-05-10T12:18:56;24.85;33.20
69335;SHT31;56477;52.742;15.242;2023-05-10T12:21:23;25.03;33.58
69335;SHT31;56477;52.742;15.242;2023-05-10T12:23:52;24.64;33.57
69335;SHT31;56477;52.742;15.242;2023-05-10T12:26:20;25.03;33.46
69335;SHT31;56477;52.742;15.242;2023-05-10T12:28:47;24.83;34.27
69335;SHT31;56477;52.742;15.242;2023-05-10T12:31:13;25.27;34.20
69335;SHT31;56477;52.742;15.242;2023-05-10T12:33:40;25.44;34.21
69335;SHT31;56477;52.742;15.242;2023-05-10T12:36:11;25.43;34.24
69335;SHT31;56477;52.742;15.242;2023-05-10T12:38:42;26.05;33.73
69335;SHT31;56477;52.742;15.242;2023-05-10T12:41:13;25.92;33.84
69335;SHT31;56477;52.742;15.242;2023-05-10T12:43:40;26.22;32.85
69335;SHT31;56477;52.742;15.242;2023-05-10T12:46:14;24.71;34.28
69335;SHT31;56477;52.742;15.242;2023-05-10T12:48:41;25.28;33.70
69335;SHT31;56477;52.742;15.242;2023-05-10T12:51:08;25.64;33.88
69335;SHT31;56477;52.742;15.242;2023-05-10T12:53:36;25.84;34.19
69335;SHT31;56477;52.742;15.242;2023-05-10T12:56:02;24.76;32.71
69335;SHT31;56477;52.742;15.242;2023-05-10T12:58:28;24.44;33.50
69335;SHT31;56477;52.742;15.242;2023-05-10T13:00:54;24.71;33.88
69335;SHT31;56477;52.742;15.242;2023-05-10T13:03:22;25.12;33.14
69335;SHT31;56477;52.742;15.242;2023-05-10T13:05:48;25.27;33.81
69335;SHT31;56477;52.742;15.242;2023-05-10T13:08:14;24.58;34.21
69335;SHT31;56477;52.742;15.242;2023-05-10T13:10:40;24.73;33.77
69335;SHT31;56477;52.742;15.242;2023-05-10T13:13:07;24.51;34.50
69335;SHT31;56477;52.742;15.242;2023-05-10T13:15:35;24.03;35.33
69335;SHT31;56477;52.742;15.242;2023-05-10T13:18:01;23.35;36.81
69335;SHT31;56477;52.742;15.242;2023-05-10T13:20:27;22.70;37.12
69335;SHT31;56477;52.742;15.242;2023-05-10T13:22:54;22.75;37.22
69335;SHT31;56477;52.742;15.242;2023-05-10T13:25:20;23.79;36.47
69335;SHT31;56477;52.742;15.242;2023-05-10T13:27:46;24.58;34.42
69335;SHT31;56477;52.742;15.242;2023-05-10T13:30:12;25.10;33.95
69335;SHT31;56477;52.742;15.242;2023-05-10T13:32:38;24.78;33.98
69335;SHT31;56477;52.742;15.242;2023-05-10T13:35:04;24.82;34.95
69335;SHT31;56477;52.742;15.242;2023-05-10T13:37:32;24.10;35.22
69335;SHT31;56477;52.742;15.242;2023-05-10T13:40:01;23.28;36.60
69335;SHT31;56477;52.742;15.242;2023-05-10T13:42:27;23.93;36.04
69335;SHT31;56477;52.742;15.242;2023-05-10T13:44:53;24.88;35.12
69335;SHT31;56477;52.742;15.242;2023-05-10T13:47:19;25.03;34.87
69335;SHT31;56477;52.742;15.242;2023-05-10T13:49:47;25.60;34.19
69335;SHT31;56477;52.742;15.242;2023-05-10T13:52:13;25.63;34.84
69335;SHT31;56477;52.742;15.242;2023-05-10T13:54:39;25.86;34.22
69335;SHT31;56477;52.742;15.242;2023-05-10T13:57:05;25.89;33.72
69335;SHT31;56477;52.742;15.242;2023-05-10T13:59:32;24.90;34.40
69335;SHT31;56477;52.742;15.242;2023-05-10T14:01:59;23.93;35.70
69335;SHT31;56477;52.742;15.242;2023-05-10T14:04:25;23.74;36.60
69335;SHT31;56477;52.742;15.242;2023-05-10T14:06:51;23.29;36.70
69335;SHT31;56477;52.742;15.242;2023-05-10T14:09:18;22.16;38.69
69335;SHT31;56477;52.742;15.242;2023-05-10T14:11:45;21.81;39.71
69335;SHT31;56477;52.742;15.242;2023-05-10T14:14:11;22.17;38.58
69335;SHT31;56477;52.742;15.242;2023-05-10T14:16:42;23.18;37.10
69335;SHT31;56477;52.742;15.242;2023-05-10T14:19:08;23.79;35.95
69335;SHT31;56477;52.742;15.242;2023-05-10T14:21:34;24.38;36.12
69335;SHT31;56477;52.742;15.242;2023-05-10T14:24:00;24.04;36.04
69335;SHT31;56477;52.742;15.242;2023-05-10T14:26:26;23.87;35.92
69335;SHT31;56477;52.742;15.242;2023-05-10T14:28:53;22.70;37.95
69335;SHT31;56477;52.742;15.242;2023-05-10T14:31:19;22.25;38.77
69335;SHT31;56477;52.742;15.242;2023-05-10T14:33:46;22.74;38.65
69335;SHT31;56477;52.742;15.242;2023-05-10T14:36:13;23.33;38.21
69335;SHT31;56477;52.742;15.242;2023-05-10T14:38:39;23.65;37.53
69335;SHT31;56477;52.742;15.242;2023-05-10T14:41:06;23.81;36.61
69335;SHT31;56477;52.742;15.242;2023-05-10T14:43:32;23.56;36.69
69335;SHT31;56477;52.742;15.242;2023-05-10T14:45:58;22.97;37.88
69335;SHT31;56477;52.742;15.242;2023-05-10T14:48:24;22.83;37.98
69335;SHT31;56477;52.742;15.242;2023-05-10T14:50:50;23.12;37.26
69335;SHT31;56477;52.742;15.242;2023-05-10T14:53:18;23.10;37.12
69335;SHT31;56477;52.742;15.242;2023-05-10T14:55:44;22.78;37.50
69335;SHT31;56477;52.742;15.242;2023-05-10T14:58:10;22.81;37.90
69335;SHT31;56477;52.742;15.242;2023-05-10T15:00:36;22.74;37.75
69335;SHT31;56477;52.742;15.242;2023-05-10T15:03:02;22.06;39.10
69335;SHT31;56477;52.742;15.242;2023-05-10T15:05:29;22.25;38.64
69335;SHT31;56477;52.742;15.242;2023-05-10T15:07:55;22.29;38.63
69335;SHT31;56477;52.742;15.242;2023-05-10T15:10:21;22.40;38.09
69335;SHT31;56477;52.742;15.242;2023-05-10T15:12:47;22.70;38.34
69335;SHT31;56477;52.742;15.242;2023-05-10T15:15:13;22.56;38.77
69335;SHT31;56477;52.742;15.242;2023-05-10T15:17:40;22.84;38.18
69335;SHT31;56477;52.742;15.242;2023-05-10T15:20:07;22.98;38.02
69335;SHT31;56477;52.742;15.242;2023-05-10T15:22:33;22.78;38.88
69335;SHT31;56477;52.742;15.242;2023-05-10T15:24:59;22.63;39.02
69335;SHT31;56477;52.742;15.242;2023-05-10T15:27:26;22.40;38.38
69335;SHT31;56477;52.742;15.242;2023-05-10T15:29:52;22.22;38.99
69335;SHT31;56477;52.742;15.242;2023-05-10T15:32:18;22.30;39.00
69335;SHT31;56477;52.742;15.242;2023-05-10T15:34:44;22.16;38.29
69335;SHT31;56477;52.742;15.242;2023-05-10T15:37:10;22.29;37.83
69335;SHT31;56477;52.742;15.242;2023-05-10T15:39:37;22.40;38.12
69335;SHT31;56477;52.742;15.242;2023-05-10T15:42:02;22.68;38.20
69335;SHT31;56477;52.742;15.242;2023-05-10T15:44:29;22.54;38.50